Time;durP1;ratioP1;P1;durP2;ratioP2;P2;SDS_P1;SDS_P2;PMS_P1;PMS_P2;Temp;Humidity;BMP_temperature;BMP_pressure;BME280_temperature;BME280_humidity;BME280_pressure;Samples;Min_cycle;Max_cycle;Signal;HPM_P1;HPM_P2
2021/12/07 00:01:29;;;;;;;40.75;20.30;;;1.90;99.90;;;;;;5078602;28;20083;-78
2021/12/07 00:03:56;;;;;;;37.33;20.38;;;1.90;99.90;;;;;;5089059;28;20486;-77
2021/12/07 00:06:22;;;;;;;41.45;22.58;;;2.40;99.90;;;;;;5084395;28;20073;-79
2021/12/07 00:08:53;;;;;;;36.90;18.85;;;1.80;99.90;;;;;;5087691;28;20058;-77
2021/12/07 00:11:20;;;;;;;36.90;19.23;;;1.80;99.90;;;;;;5085226;28;20040;-78
2021/12/07 00:13:46;;;;;;;40.88;20.75;;;1.80;99.90;;;;;;5089210;28;20046;-80
2021/12/07 00:16:13;;;;;;;36.15;18.63;;;2.10;99.90;;;;;;5071130;28;20039;-78
2021/12/07 00:18:39;;;;;;;38.35;20.20;;;1.80;99.90;;;;;;5074958;28;20031;-78
2021/12/07 00:21:07;;;;;;;33.45;18.98;;;1.70;99.90;;;;;;5092026;28;20044;-77
2021/12/07 00:23:34;;;;;;;42.70;20.50;;;1.70;99.90;;;;;;5093733;28;20672;-79
2021/12/07 00:26:00;;;;;;;40.35;21.20;;;1.60;99.90;;;;;;5089790;28;20048;-78
2021/12/07 00:28:26;;;;;;;35.30;19.75;;;1.70;99.90;;;;;;5072352;28;20069;-77
2021/12/07 00:30:53;;;;;;;37.60;20.63;;;1.60;99.90;;;;;;5086063;28;20051;-77
2021/12/07 00:35:46;;;;;;;40.17;20.90;;;1.60;99.90;;;;;;5088131;28;20718;-77
2021/12/07 00:38:18;;;;;;;30.92;18.65;;;1.50;99.90;;;;;;5071104;28;20047;-76
2021/12/07 00:40:44;;;;;;;31.83;18.17;;;1.50;99.90;;;;;;5073346;28;20488;-77
2021/12/07 00:43:11;;;;;;;35.45;18.80;;;1.40;99.90;;;;;;5074750;28;20047;-78
2021/12/07 00:45:38;;;;;;;37.38;19.42;;;1.40;99.90;;;;;;5070860;28;20075;-79
2021/12/07 00:48:05;;;;;;;39.08;20.50;;;1.40;99.90;;;;;;5085890;28;20040;-78
2021/12/07 00:50:32;;;;;;;36.10;18.63;;;1.30;99.90;;;;;;5088784;28;20162;-78
2021/12/07 00:53:02;;;;;;;34.25;19.20;;;1.30;99.90;;;;;;5093572;28;20050;-77
2021/12/07 00:55:30;;;;;;;34.90;18.40;;;1.20;99.90;;;;;;5094712;28;20035;-77
2021/12/07 00:57:58;;;;;;;36.42;19.60;;;1.20;99.90;;;;;;5072444;28;20048;-78
2021/12/07 01:00:25;;;;;;;36.30;19.42;;;1.20;99.90;;;;;;5078206;28;20044;-78
2021/12/07 01:02:54;;;;;;;36.67;18.27;;;1.10;99.90;;;;;;5080877;28;20047;-77
2021/12/07 01:05:28;;;;;;;39.40;19.95;;;1.10;99.90;;;;;;5087385;28;20538;-78
2021/12/07 01:08:21;;;;;;;35.97;18.58;;;0.80;99.90;;;;;;5077698;28;20381;-78
2021/12/07 01:24:40;;;;;;;32.85;17.83;;;1.00;99.90;;;;;;5084862;28;20044;-78
2021/12/07 01:27:07;;;;;;;32.40;17.70;;;1.00;99.90;;;;;;5084233;28;20044;-77
2021/12/07 01:29:35;;;;;;;31.23;17.55;;;1.10;99.90;;;;;;5084801;28;20036;-78
2021/12/07 01:59:35;;;;;;;30.77;17.10;;;0.90;99.90;;;;;;5070237;28;20048;-77
2021/12/07 02:02:10;;;;;;;34.97;18.25;;;0.90;99.90;;;;;;5080961;28;20035;-78
2021/12/07 02:04:37;;;;;;;34.63;18.27;;;0.90;99.90;;;;;;5074176;28;20111;-78
2021/12/07 02:07:05;;;;;;;34.55;18.75;;;0.90;99.90;;;;;;5063995;28;20059;-78
2021/12/07 02:09:34;;;;;;;34.60;18.35;;;0.90;99.90;;;;;;5081520;28;20044;-78
2021/12/07 02:12:01;;;;;;;37.60;19.30;;;0.90;99.90;;;;;;5058155;28;20078;-79
2021/12/07 02:14:27;;;;;;;39.60;19.38;;;0.90;99.90;;;;;;5075194;28;20051;-78
2021/12/07 02:16:56;;;;;;;31.10;18.08;;;1.00;99.90;;;;;;5062573;28;20116;-78
2021/12/07 02:19:23;;;;;;;35.58;19.98;;;1.00;99.90;;;;;;5060315;28;20055;-78
2021/12/07 02:21:50;;;;;;;39.05;19.98;;;1.00;99.90;;;;;;5056365;28;20040;-78
2021/12/07 02:24:16;;;;;;;32.40;17.75;;;1.00;99.90;;;;;;5080634;28;20056;-78
2021/12/07 02:26:42;;;;;;;37.88;19.80;;;1.00;99.90;;;;;;5081285;28;20054;-77
2021/12/07 02:29:08;;;;;;;35.30;18.23;;;1.00;99.90;;;;;;5055645;28;20071;-77
2021/12/07 02:31:35;;;;;;;33.25;18.05;;;1.10;99.90;;;;;;5080452;28;20036;-78
2021/12/07 02:34:02;;;;;;;32.47;18.23;;;1.00;99.90;;;;;;5074535;28;20046;-77
2021/12/07 02:36:28;;;;;;;31.88;17.05;;;1.10;99.90;;;;;;5085392;28;20036;-78
2021/12/07 02:38:54;;;;;;;33.83;18.90;;;1.10;99.90;;;;;;5078608;28;20051;-78
2021/12/07 02:41:19;;;;;;;33.83;18.05;;;1.10;99.90;;;;;;5085429;28;20036;-78
2021/12/07 02:43:46;;;;;;;29.90;16.67;;;1.10;99.90;;;;;;5081480;28;20131;-77
2021/12/07 02:46:12;;;;;;;31.98;16.73;;;1.10;99.90;;;;;;5058631;28;20254;-78
2021/12/07 02:48:38;;;;;;;33.42;16.42;;;1.10;99.90;;;;;;5067716;28;20044;-77
2021/12/07 02:51:04;;;;;;;29.75;15.80;;;1.20;99.90;;;;;;5077516;28;20040;-77
2021/12/07 02:53:32;;;;;;;35.25;16.58;;;1.20;99.90;;;;;;5084259;28;20508;-77
2021/12/07 02:56:00;;;;;;;27.40;15.68;;;1.20;99.90;;;;;;5059894;28;20520;-77
2021/12/07 02:58:26;;;;;;;29.40;15.65;;;0.40;99.90;;;;;;5051148;28;20056;-79
2021/12/07 03:01:01;;;;;;;33.38;16.88;;;1.20;99.90;;;;;;5080323;28;20576;-78
2021/12/07 03:03:29;;;;;;;25.55;14.38;;;1.10;99.90;;;;;;5070815;28;20116;-77
2021/12/07 03:06:12;;;;;;;29.13;15.45;;;1.10;99.90;;;;;;5086086;28;20103;-78
2021/12/07 03:27:35;;;;;;;24.40;12.50;;;0.90;99.90;;;;;;5076243;28;20047;-79
2021/12/07 03:30:07;;;;;;;23.13;12.05;;;0.90;99.90;;;;;;5078533;28;20051;-78
2021/12/07 03:32:32;;;;;;;;;;;0.90;99.90;;;;;;5079993;28;20050;-78
2021/12/07 03:34:58;;;;;;;23.80;12.23;;;0.80;99.90;;;;;;5102410;28;19920;-79
2021/12/07 03:37:24;;;;;;;25.15;12.50;;;0.80;99.90;;;;;;5072093;28;20032;-78
2021/12/07 03:39:49;;;;;;;22.55;11.85;;;0.80;99.90;;;;;;5073558;28;20085;-78
2021/12/07 03:42:15;;;;;;;23.73;12.52;;;0.80;99.90;;;;;;5091629;28;20142;-79
2021/12/07 03:44:41;;;;;;;23.50;12.45;;;0.80;99.90;;;;;;5085499;28;20126;-78
2021/12/07 03:47:06;;;;;;;21.35;12.00;;;0.80;99.90;;;;;;5080724;28;20059;-78
2021/12/07 03:49:32;;;;;;;23.55;12.07;;;0.80;99.90;;;;;;5086015;28;20047;-78
2021/12/07 03:51:58;;;;;;;22.40;11.60;;;0.80;99.90;;;;;;5092689;28;20411;-78
2021/12/07 03:54:24;;;;;;;24.63;13.40;;;0.80;99.90;;;;;;5088288;28;20048;-78
2021/12/07 03:56:49;;;;;;;26.13;12.18;;;0.70;99.90;;;;;;5071428;28;20040;-78
2021/12/07 03:59:15;;;;;;;25.48;12.38;;;0.70;99.90;;;;;;5060817;28;20535;-79
2021/12/07 04:01:41;;;;;;;22.55;12.00;;;0.70;99.90;;;;;;5085586;28;20108;-78
2021/12/07 04:04:06;;;;;;;24.70;13.30;;;0.70;99.90;;;;;;5086983;28;20080;-78
2021/12/07 04:06:32;;;;;;;23.48;11.88;;;0.70;99.90;;;;;;5088340;28;20070;-78
2021/12/07 04:08:58;;;;;;;24.10;11.73;;;0.70;99.90;;;;;;5086588;28;20509;-78
2021/12/07 04:11:24;;;;;;;27.02;12.38;;;0.70;99.90;;;;;;5084741;28;20084;-78
2021/12/07 04:13:49;;;;;;;24.80;11.98;;;0.80;99.90;;;;;;5086941;28;20055;-78
2021/12/07 04:16:17;;;;;;;26.75;12.85;;;0.80;99.90;;;;;;5070023;28;20427;-78
2021/12/07 04:18:43;;;;;;;29.52;13.80;;;0.80;99.90;;;;;;5058365;28;20089;-78
2021/12/07 04:21:09;;;;;;;25.08;11.77;;;0.80;99.90;;;;;;5084779;28;20092;-79
2021/12/07 04:23:36;;;;;;;24.40;11.95;;;0.80;99.90;;;;;;5063240;28;20454;-78
2021/12/07 04:26:04;;;;;;;24.98;11.40;;;0.80;99.90;;;;;;5077231;28;20087;-78
2021/12/07 04:28:30;;;;;;;24.55;11.73;;;0.90;99.90;;;;;;5061143;28;20182;-78
2021/12/07 04:30:56;;;;;;;24.42;12.05;;;0.80;99.90;;;;;;5054794;28;20127;-78
2021/12/07 04:33:21;;;;;;;23.65;12.25;;;0.90;99.90;;;;;;5054848;28;20648;-78
2021/12/07 04:35:49;;;;;;;24.83;11.30;;;1.00;99.90;;;;;;5060261;28;20079;-78
2021/12/07 04:38:16;;;;;;;25.00;11.27;;;1.00;99.90;;;;;;5059160;28;20144;-79
2021/12/07 04:40:43;;;;;;;26.08;12.20;;;1.00;99.90;;;;;;5082642;28;20048;-78
2021/12/07 04:43:12;;;;;;;26.88;11.63;;;1.00;99.90;;;;;;5070043;28;20074;-78
2021/12/07 04:45:53;;;;;;;23.30;11.13;;;1.00;99.90;;;;;;5064266;28;20425;-78
2021/12/07 04:59:06;;;;;;;30.45;11.20;;;1.10;99.90;;;;;;5072540;28;20483;-78
2021/12/07 05:01:33;;;;;;;20.60;10.45;;;1.10;99.90;;;;;;5062314;28;20050;-78
2021/12/07 05:04:04;;;;;;;23.50;11.38;;;1.10;99.90;;;;;;5064285;28;20592;-78
2021/12/07 05:06:33;;;;;;;29.55;11.40;;;1.20;99.90;;;;;;5091492;28;20047;-78
2021/12/07 05:09:07;;;;;;;26.70;11.27;;;1.20;99.90;;;;;;5054978;28;20052;-78
2021/12/07 05:11:48;;;;;;;24.63;11.38;;;1.20;99.90;;;;;;5062632;28;20052;-78
2021/12/07 05:14:25;;;;;;;26.45;11.02;;;1.20;99.90;;;;;;5086445;28;20773;-78
2021/12/07 05:17:01;;;;;;;22.48;10.52;;;1.20;99.90;;;;;;5079534;28;20559;-78
2021/12/07 05:38:47;;;;;;;23.63;9.57;;;1.00;99.90;;;;;;5058852;28;20137;-78
2021/12/07 05:41:13;;;;;;;22.83;9.18;;;1.00;99.90;;;;;;5082584;28;20123;-78
2021/12/07 05:43:41;;;;;;;21.33;9.43;;;1.00;99.90;;;;;;5091063;28;20500;-78
2021/12/07 05:46:07;;;;;;;19.00;9.18;;;1.10;99.90;;;;;;5080943;28;20059;-78
2021/12/07 05:48:33;;;;;;;21.98;9.30;;;1.00;99.90;;;;;;5080578;28;20043;-78
2021/12/07 05:50:59;;;;;;;22.42;8.98;;;1.00;99.90;;;;;;5073285;28;20341;-78
2021/12/07 05:53:25;;;;;;;16.52;7.93;;;1.00;99.90;;;;;;5085017;28;20167;-78
2021/12/07 05:55:51;;;;;;;18.23;8.23;;;1.00;99.90;;;;;;5082305;28;20048;-78
2021/12/07 05:58:19;;;;;;;22.30;8.23;;;1.00;99.90;;;;;;5069783;28;20043;-77
2021/12/07 06:00:46;;;;;;;19.52;8.57;;;1.00;99.90;;;;;;5064561;28;20035;-78
2021/12/07 06:03:12;;;;;;;19.95;8.32;;;1.00;99.90;;;;;;5085184;28;20126;-78
2021/12/07 06:05:40;;;;;;;19.52;8.00;;;1.10;99.90;;;;;;5088266;28;20058;-78
2021/12/07 06:08:06;;;;;;;15.93;7.13;;;1.10;99.90;;;;;;5080728;28;20354;-77
2021/12/07 06:10:32;;;;;;;17.23;7.35;;;1.50;99.90;;;;;;5061360;28;20447;-78
2021/12/07 06:12:58;;;;;;;19.13;8.02;;;1.10;99.90;;;;;;5053401;28;20054;-78
2021/12/07 06:15:26;;;;;;;19.55;8.18;;;1.10;99.90;;;;;;5063764;28;20044;-78
2021/12/07 06:17:52;;;;;;;23.35;8.10;;;1.20;99.90;;;;;;5050619;28;20059;-78
2021/12/07 06:20:19;;;;;;;21.98;7.80;;;1.90;99.90;;;;;;5082642;28;20713;-78
2021/12/07 06:22:45;;;;;;;16.40;7.97;;;1.10;99.90;;;;;;5066349;28;20051;-79
2021/12/07 06:25:11;;;;;;;21.25;7.60;;;1.20;99.90;;;;;;5084250;28;20041;-78
2021/12/07 06:27:38;;;;;;;17.42;7.30;;;1.10;99.90;;;;;;5079881;28;21883;-78
2021/12/07 06:30:05;;;;;;;16.88;7.45;;;1.10;99.90;;;;;;5084986;28;20043;-78
2021/12/07 06:32:31;;;;;;;21.00;7.38;;;1.10;99.90;;;;;;5063977;28;20104;-78
2021/12/07 06:34:56;;;;;;;26.75;6.95;;;1.10;99.90;;;;;;5076579;28;20052;-78
2021/12/07 06:37:22;;;;;;;18.83;7.05;;;1.10;99.90;;;;;;5080862;28;20043;-78
2021/12/07 06:39:48;;;;;;;20.15;7.75;;;1.10;99.90;;;;;;5092454;27;20459;-78
2021/12/07 06:42:14;;;;;;;16.75;7.55;;;1.10;99.90;;;;;;5080447;28;20043;-78
2021/12/07 06:44:40;;;;;;;17.52;8.20;;;1.10;99.90;;;;;;5079564;28;20130;-78
2021/12/07 06:47:06;;;;;;;24.20;8.05;;;1.10;99.90;;;;;;5079890;28;20575;-78
2021/12/07 06:49:32;;;;;;;23.70;8.55;;;1.10;99.90;;;;;;5062166;28;20051;-78
2021/12/07 06:51:58;;;;;;;16.05;7.15;;;1.10;99.90;;;;;;5081447;27;20035;-78
2021/12/07 06:54:25;;;;;;;26.08;9.80;;;1.10;99.90;;;;;;5059377;28;20071;-78
2021/12/07 06:56:52;;;;;;;25.73;8.25;;;1.20;99.90;;;;;;5080029;28;21109;-78
2021/12/07 06:59:18;;;;;;;18.48;7.00;;;1.20;99.90;;;;;;5081657;28;20070;-78
2021/12/07 07:01:44;;;;;;;23.58;8.07;;;1.20;99.90;;;;;;5062273;28;20173;-78
2021/12/07 07:04:12;;;;;;;18.52;7.38;;;1.20;99.90;;;;;;5062296;28;20031;-78
2021/12/07 07:06:38;;;;;;;18.95;8.32;;;1.20;99.90;;;;;;5080823;28;20065;-79
2021/12/07 07:09:05;;;;;;;24.35;7.63;;;1.10;99.90;;;;;;5079766;28;20424;-79
2021/12/07 07:11:32;;;;;;;17.98;7.40;;;1.10;99.90;;;;;;5080897;28;20067;-78
2021/12/07 07:13:58;;;;;;;25.83;7.82;;;1.10;99.90;;;;;;5080852;28;20074;-78
2021/12/07 07:16:24;;;;;;;21.30;8.07;;;1.10;99.90;;;;;;5076481;28;20051;-78
2021/12/07 07:18:49;;;;;;;19.48;7.25;;;1.10;99.90;;;;;;5076257;28;20048;-78
2021/12/07 07:21:16;;;;;;;20.88;7.72;;;1.10;99.90;;;;;;5080990;28;20032;-78
2021/12/07 07:23:41;;;;;;;26.60;7.78;;;1.10;99.90;;;;;;5081434;28;20459;-78
2021/12/07 07:26:07;;;;;;;28.35;8.13;;;1.10;99.90;;;;;;5094282;28;20090;-78
2021/12/07 07:28:34;;;;;;;19.75;7.72;;;1.20;99.90;;;;;;5073901;28;20047;-78
2021/12/07 07:31:02;;;;;;;21.20;7.68;;;1.10;99.90;;;;;;5077797;28;20130;-79
2021/12/07 07:33:28;;;;;;;22.15;8.48;;;1.20;99.90;;;;;;5059924;28;20031;-78
2021/12/07 07:35:53;;;;;;;25.00;8.35;;;1.10;99.90;;;;;;5081063;28;20104;-78
2021/12/07 07:38:20;;;;;;;21.27;7.90;;;1.20;99.90;;;;;;5078846;28;20648;-78
2021/12/07 07:40:46;;;;;;;21.88;7.53;;;1.20;99.90;;;;;;5077648;28;20105;-79
2021/12/07 07:43:17;;;;;;;25.27;6.60;;;1.10;99.90;;;;;;5079258;28;20044;-78
2021/12/07 07:45:43;;;;;;;27.70;7.53;;;1.20;99.90;;;;;;5081449;28;20046;-79
2021/12/07 07:48:09;;;;;;;26.02;7.95;;;1.20;99.90;;;;;;5063417;28;20094;-79
2021/12/07 07:50:35;;;;;;;25.58;8.10;;;1.20;99.90;;;;;;5082210;28;20028;-78
2021/12/07 07:53:01;;;;;;;22.65;8.18;;;1.20;99.90;;;;;;5082147;28;20040;-79
2021/12/07 07:55:26;;;;;;;20.17;7.80;;;1.30;99.90;;;;;;5067649;28;20028;-79
2021/12/07 07:57:52;;;;;;;22.98;7.38;;;1.30;99.90;;;;;;5083165;28;20048;-78
2021/12/07 08:00:21;;;;;;;21.85;7.72;;;1.30;99.90;;;;;;5064996;28;20761;-77
2021/12/07 08:02:47;;;;;;;19.55;7.20;;;1.30;99.90;;;;;;5082703;28;20044;-77
2021/12/07 08:05:14;;;;;;;18.80;7.07;;;1.30;99.90;;;;;;5076898;28;20135;-77
2021/12/07 08:07:39;;;;;;;19.08;6.80;;;1.40;99.90;;;;;;5064646;28;20423;-77
2021/12/07 08:10:08;;;;;;;23.75;7.38;;;1.40;99.90;;;;;;5062680;28;20050;-77
2021/12/07 08:12:35;;;;;;;21.58;7.07;;;1.40;99.90;;;;;;5094229;28;20513;-79
2021/12/07 08:15:01;;;;;;;24.63;7.50;;;1.40;99.90;;;;;;5077711;28;20505;-79
2021/12/07 08:17:26;;;;;;;28.30;7.60;;;1.50;99.90;;;;;;5075783;28;20065;-79
2021/12/07 08:19:52;;;;;;;23.17;7.32;;;1.50;99.90;;;;;;5084386;28;20043;-80
2021/12/07 08:22:18;;;;;;;19.48;6.63;;;1.60;99.90;;;;;;5082264;28;20067;-80
2021/12/07 08:24:44;;;;;;;24.85;7.40;;;1.60;99.90;;;;;;5087594;28;20105;-80
2021/12/07 08:27:10;;;;;;;22.80;6.93;;;1.60;99.90;;;;;;5087700;28;20392;-80
2021/12/07 08:29:35;;;;;;;24.08;7.07;;;1.60;99.90;;;;;;5087919;28;20043;-80
2021/12/07 08:32:01;;;;;;;20.52;7.65;;;1.60;99.90;;;;;;5084684;28;20048;-80
2021/12/07 08:34:27;;;;;;;24.77;7.95;;;1.70;99.90;;;;;;5083179;28;20462;-79
2021/12/07 08:36:53;;;;;;;26.05;8.27;;;1.70;99.90;;;;;;5088432;28;20050;-80
2021/12/07 08:39:18;;;;;;;27.60;8.23;;;1.70;99.90;;;;;;5069670;28;20093;-80
2021/12/07 08:41:44;;;;;;;26.55;7.85;;;1.70;99.90;;;;;;5085292;28;20039;-79
2021/12/07 08:44:11;;;;;;;23.98;7.97;;;1.80;99.90;;;;;;5071381;28;20039;-80
2021/12/07 08:46:37;;;;;;;28.23;8.05;;;1.80;99.90;;;;;;5101356;28;20130;-79
2021/12/07 08:49:03;;;;;;;22.60;7.05;;;1.90;99.90;;;;;;5086405;28;20027;-79
2021/12/07 08:51:29;;;;;;;23.10;7.70;;;1.90;99.90;;;;;;5085044;28;20035;-80
2021/12/07 08:54:02;;;;;;;22.80;8.10;;;1.90;99.90;;;;;;5070518;28;20119;-79
2021/12/07 09:01:56;;;;;;;24.75;6.80;;;2.60;99.90;;;;;;5084916;28;20058;-79
2021/12/07 09:04:22;;;;;;;21.80;5.72;;;2.30;99.90;;;;;;5093200;28;20031;-79
2021/12/07 09:06:49;;;;;;;18.17;6.00;;;2.40;99.90;;;;;;5078006;28;20056;-79
2021/12/07 09:09:16;;;;;;;21.00;6.95;;;2.40;99.90;;;;;;5068018;28;20575;-80
2021/12/07 09:11:42;;;;;;;17.15;5.43;;;2.60;99.90;;;;;;5084981;28;20100;-80
2021/12/07 09:14:14;;;;;;;19.55;5.82;;;2.80;99.90;;;;;;5084771;28;20043;-80
2021/12/07 09:16:42;;;;;;;19.67;5.78;;;2.90;99.90;;;;;;5084467;28;20443;-79
2021/12/07 09:19:07;;;;;;;26.27;5.55;;;2.90;99.90;;;;;;5080226;28;20079;-79
2021/12/07 09:21:33;;;;;;;20.00;6.00;;;2.80;99.90;;;;;;5082049;28;20762;-79
2021/12/07 09:23:59;;;;;;;23.73;6.60;;;2.80;99.90;;;;;;5058917;28;20079;-80
2021/12/07 09:26:25;;;;;;;21.05;6.40;;;2.80;99.90;;;;;;5062582;28;20043;-79
2021/12/07 09:28:51;;;;;;;25.17;5.70;;;2.80;99.90;;;;;;5063234;28;20050;-79
2021/12/07 09:31:17;;;;;;;20.17;5.78;;;2.80;99.90;;;;;;5076597;28;20053;-80
2021/12/07 09:33:43;;;;;;;17.13;6.18;;;2.90;99.90;;;;;;5076713;28;20131;-79
2021/12/07 09:36:13;;;;;;;21.95;5.65;;;2.80;99.90;;;;;;5077091;28;20035;-80
2021/12/07 09:38:41;;;;;;;21.17;5.88;;;2.90;99.90;;;;;;5080778;28;20047;-80
2021/12/07 09:41:08;;;;;;;14.30;5.57;;;2.90;99.90;;;;;;5079638;28;20142;-80
2021/12/07 09:43:36;;;;;;;16.35;5.82;;;2.90;99.90;;;;;;5082157;28;20043;-80
2021/12/07 09:46:03;;;;;;;29.10;5.53;;;3.00;99.90;;;;;;5083626;28;20051;-80
2021/12/07 09:48:29;;;;;;;19.20;5.60;;;3.00;99.90;;;;;;5077331;28;20058;-80
2021/12/07 09:50:55;;;;;;;23.23;6.30;;;3.10;99.90;;;;;;5078537;28;20047;-80
2021/12/07 09:53:23;;;;;;;17.00;5.93;;;3.10;99.90;;;;;;5080797;28;20399;-80
2021/12/07 09:55:49;;;;;;;16.95;5.53;;;3.20;99.90;;;;;;5093499;28;20511;-80
2021/12/07 09:58:16;;;;;;;17.13;5.53;;;3.20;99.90;;;;;;5080787;28;20051;-80
2021/12/07 10:00:44;;;;;;;23.95;5.93;;;3.20;99.90;;;;;;5081864;28;20051;-80
2021/12/07 10:03:10;;;;;;;15.75;5.68;;;3.30;99.90;;;;;;5079021;28;20046;-80
2021/12/07 10:05:39;;;;;;;16.90;5.20;;;3.40;99.90;;;;;;5081861;28;20570;-79
2021/12/07 10:08:05;;;;;;;17.20;6.07;;;3.40;99.90;;;;;;5080978;28;20450;-79
2021/12/07 10:10:32;;;;;;;16.70;4.60;;;3.40;99.90;;;;;;5063771;28;20385;-81
2021/12/07 10:13:00;;;;;;;11.00;4.60;;;3.50;99.90;;;;;;5078685;28;20077;-80
2021/12/07 10:15:26;;;;;;;18.48;5.57;;;3.50;99.90;;;;;;5080844;28;20434;-79
2021/12/07 10:18:09;;;;;;;16.73;4.40;;;3.60;99.90;;;;;;5080682;28;20039;-79
2021/12/07 10:20:43;;;;;;;18.38;4.70;;;3.60;99.90;;;;;;5076917;28;20058;-83
2021/12/07 10:23:18;;;;;;;20.48;5.20;;;3.50;99.90;;;;;;5061533;28;20040;-80
2021/12/07 10:25:47;;;;;;;18.83;5.28;;;3.50;99.90;;;;;;5077153;28;20043;-80
2021/12/07 10:28:44;;;;;;;18.65;5.25;;;3.50;99.90;;;;;;5075854;28;20154;-81
2021/12/07 10:31:09;;;;;;;21.48;5.43;;;4.00;99.90;;;;;;5055949;28;20241;-80
2021/12/07 10:33:42;;;;;;;22.00;5.68;;;3.70;99.90;;;;;;5079845;28;20541;-80
2021/12/07 10:36:27;;;;;;;11.52;4.60;;;3.70;99.90;;;;;;5063778;28;20123;-80
2021/12/07 10:38:59;;;;;;;14.82;4.45;;;3.80;99.90;;;;;;5079912;28;20039;-80
2021/12/07 10:41:26;;;;;;;16.20;4.55;;;3.90;99.90;;;;;;5080528;28;20058;-81
2021/12/07 10:43:57;;;;;;;13.25;3.70;;;3.90;99.90;;;;;;5081170;28;20078;-80
2021/12/07 10:46:46;;;;;;;19.02;5.40;;;3.90;99.90;;;;;;5075953;28;20554;-81
2021/12/07 10:49:18;;;;;;;18.92;4.53;;;4.00;99.90;;;;;;5084930;28;20043;-80
2021/12/07 10:52:19;;;;;;;19.77;4.05;;;4.00;99.90;;;;;;5090729;28;20043;-80
2021/12/07 10:54:59;;;;;;;16.02;4.68;;;4.00;99.90;;;;;;5068244;28;20040;-81
2021/12/07 10:57:34;;;;;;;16.13;4.75;;;4.00;99.90;;;;;;5070047;28;20101;-81
2021/12/07 11:00:20;;;;;;;17.50;5.22;;;4.00;99.90;;;;;;5058219;28;20062;-81
2021/12/07 11:02:52;;;;;;;17.67;4.82;;;4.00;99.90;;;;;;5073587;28;20047;-81
2021/12/07 11:05:25;;;;;;;14.23;5.28;;;4.10;99.90;;;;;;5073941;28;20547;-81
2021/12/07 11:07:51;;;;;;;19.67;5.70;;;4.10;99.90;;;;;;5074921;28;20036;-81
2021/12/07 11:10:29;;;;;;;22.17;5.55;;;4.20;99.90;;;;;;5071287;28;20043;-81
2021/12/07 11:13:13;;;;;;;28.40;6.32;;;4.20;99.90;;;;;;5057192;28;20067;-81
2021/12/07 11:15:50;;;;;;;17.58;5.45;;;4.30;99.90;;;;;;5058725;28;20063;-81
2021/12/07 11:18:20;;;;;;;17.80;5.00;;;4.40;99.90;;;;;;5058257;28;20527;-81
2021/12/07 11:20:45;;;;;;;33.53;5.55;;;4.50;99.90;;;;;;5061241;28;20055;-81
2021/12/07 11:23:21;;;;;;;14.82;4.68;;;4.60;99.90;;;;;;5073837;28;20515;-80
2021/12/07 11:31:20;;;;;;;17.55;4.10;;;4.70;99.90;;;;;;5074922;28;20048;-81
2021/12/07 11:33:48;;;;;;;16.77;4.55;;;4.80;99.90;;;;;;5077508;28;20047;-81
2021/12/07 11:36:27;;;;;;;17.27;4.00;;;4.80;99.90;;;;;;5061570;28;20028;-81
2021/12/07 11:38:54;;;;;;;17.95;4.22;;;4.90;99.90;;;;;;5059185;28;20078;-81
2021/12/07 11:41:25;;;;;;;20.48;4.38;;;4.90;99.90;;;;;;5075515;28;20416;-81
2021/12/07 11:43:58;;;;;;;20.95;4.85;;;5.00;99.90;;;;;;5076338;28;20036;-81
2021/12/07 11:46:26;;;;;;;16.73;4.25;;;5.00;99.90;;;;;;5070088;28;20051;-85
2021/12/07 11:49:16;;;;;;;16.40;4.30;;;5.00;99.90;;;;;;5055717;28;20615;-82
2021/12/07 11:51:44;;;;;;;17.50;3.97;;;5.10;99.90;;;;;;5076549;28;20094;-82
2021/12/07 11:54:11;;;;;;;16.60;4.22;;;5.10;99.90;;;;;;5076040;28;20058;-82
2021/12/07 11:56:38;;;;;;;14.55;3.60;;;5.10;99.90;;;;;;5086943;28;20526;-82
2021/12/07 11:59:05;;;;;;;13.38;3.97;;;5.20;99.90;;;;;;5078997;28;20524;-82
2021/12/07 12:01:31;;;;;;;15.50;4.07;;;5.20;99.90;;;;;;5070990;28;20048;-83
2021/12/07 12:03:57;;;;;;;11.90;3.65;;;5.30;99.90;;;;;;5063970;28;20484;-82
2021/12/07 12:06:22;;;;;;;15.43;4.30;;;5.30;99.90;;;;;;5090131;28;20047;-82
2021/12/07 12:08:50;;;;;;;12.95;3.58;;;5.30;99.90;;;;;;5063107;28;20043;-82
2021/12/07 12:11:39;;;;;;;15.55;3.45;;;5.30;99.90;;;;;;5063965;28;20507;-83
2021/12/07 12:14:26;;;;;;;20.77;5.05;;;5.40;99.90;;;;;;5077590;28;20044;-83
2021/12/07 12:17:08;;;;;;;15.75;4.28;;;5.90;99.90;;;;;;5082143;28;20138;-83
2021/12/07 12:19:39;;;;;;;13.30;3.50;;;5.40;99.90;;;;;;5079395;28;20122;-82
2021/12/07 12:22:11;;;;;;;23.38;3.90;;;5.40;99.90;;;;;;5095234;28;20055;-83
2021/12/07 12:24:49;;;;;;;17.08;3.67;;;5.40;99.90;;;;;;5079742;28;20040;-82
2021/12/07 12:27:23;;;;;;;14.02;4.20;;;5.50;99.90;;;;;;5094434;28;20044;-83
2021/12/07 12:29:51;;;;;;;15.75;4.00;;;5.50;99.90;;;;;;5064561;28;20036;-84
2021/12/07 12:32:36;;;;;;;15.07;4.35;;;5.50;99.90;;;;;;5082086;28;20044;-83
2021/12/07 12:35:04;;;;;;;22.63;5.28;;;5.50;99.90;;;;;;5063525;28;20043;-82
2021/12/07 12:37:31;;;;;;;12.30;3.40;;;5.50;99.90;;;;;;5090043;28;20520;-83
2021/12/07 12:40:07;;;;;;;16.52;3.97;;;5.50;99.90;;;;;;5080559;28;20087;-82
2021/12/07 12:42:42;;;;;;;17.58;4.60;;;5.40;99.90;;;;;;5077294;28;20491;-83
2021/12/07 12:45:22;;;;;;;16.63;3.90;;;5.40;99.90;;;;;;5077803;28;20067;-83
2021/12/07 12:47:56;;;;;;;12.77;3.67;;;5.40;99.90;;;;;;5074819;28;20044;-83
2021/12/07 12:50:30;;;;;;;15.68;3.80;;;5.40;99.90;;;;;;5078477;28;20523;-83
2021/12/07 12:53:00;;;;;;;16.92;4.00;;;5.40;99.90;;;;;;5079290;28;20044;-83
2021/12/07 12:55:38;;;;;;;22.63;4.78;;;5.30;99.90;;;;;;5081150;28;20064;-83
2021/12/07 12:58:08;;;;;;;16.45;4.25;;;5.40;99.90;;;;;;5075401;28;20459;-83
2021/12/07 13:01:08;;;;;;;21.25;5.00;;;5.30;99.90;;;;;;5082291;28;20059;-83
2021/12/07 13:03:42;;;;;;;16.63;3.83;;;5.30;99.90;;;;;;5063515;28;20080;-83
2021/12/07 13:06:14;;;;;;;10.18;3.72;;;5.30;99.90;;;;;;5081066;28;20222;-83
2021/12/07 13:08:55;;;;;;;17.92;4.47;;;5.30;99.90;;;;;;5081555;28;20043;-84
2021/12/07 13:11:35;;;;;;;21.92;4.65;;;5.40;99.90;;;;;;5083189;28;20044;-83
2021/12/07 13:14:02;;;;;;;12.30;3.95;;;5.40;99.90;;;;;;5096041;28;20035;-83
2021/12/07 13:16:29;;;;;;;16.85;4.57;;;5.40;99.90;;;;;;5080699;28;20052;-84
2021/12/07 13:19:05;;;;;;;17.98;4.10;;;5.40;99.90;;;;;;5078698;28;20068;-84
2021/12/07 13:21:38;;;;;;;24.58;4.97;;;5.40;99.90;;;;;;5081655;28;21427;-83
2021/12/07 13:24:08;;;;;;;16.10;4.53;;;5.40;99.90;;;;;;5056560;28;20048;-83
2021/12/07 13:26:36;;;;;;;17.90;4.25;;;5.40;99.90;;;;;;5079069;28;20036;-83
2021/12/07 13:29:14;;;;;;;13.48;3.50;;;5.50;99.90;;;;;;5059996;28;20711;-83
2021/12/07 13:31:51;;;;;;;20.05;4.32;;;5.40;99.90;;;;;;5076521;28;20051;-84
2021/12/07 13:34:25;;;;;;;21.33;4.30;;;5.40;99.90;;;;;;5089334;28;20050;-83
2021/12/07 13:37:03;;;;;;;16.25;4.90;;;5.40;99.90;;;;;;5078952;28;20046;-84
2021/12/07 13:39:29;;;;;;;18.20;4.80;;;5.40;99.90;;;;;;5085178;28;20076;-81
2021/12/07 13:42:23;;;;;;;16.77;4.15;;;5.40;99.90;;;;;;5061705;28;20648;-80
2021/12/07 13:45:07;;;;;;;15.13;3.72;;;5.40;99.90;;;;;;5060731;28;20040;-81
2021/12/07 13:47:36;;;;;;;14.63;4.25;;;5.40;99.90;;;;;;5069046;28;20052;-81
2021/12/07 13:50:20;;;;;;;21.02;4.68;;;5.40;99.90;;;;;;5077366;28;20082;-80
2021/12/07 13:52:49;;;;;;;17.55;4.00;;;5.30;99.90;;;;;;5074629;28;20055;-80
2021/12/07 13:55:18;;;;;;;18.20;4.13;;;5.30;99.90;;;;;;5050153;28;20044;-82
2021/12/07 13:57:48;;;;;;;11.60;4.32;;;5.20;99.90;;;;;;5072803;28;20037;-81
2021/12/07 14:00:19;;;;;;;17.00;4.32;;;5.20;99.90;;;;;;5059345;28;20533;-81
2021/12/07 14:02:56;;;;;;;18.25;4.55;;;5.20;99.90;;;;;;5071685;28;20894;-80
2021/12/07 14:05:35;;;;;;;18.35;4.72;;;5.10;99.90;;;;;;5060055;28;20048;-81
2021/12/07 14:08:04;;;;;;;14.30;3.70;;;5.00;99.90;;;;;;5067881;28;20048;-81
2021/12/07 14:10:33;;;;;;;14.95;4.38;;;5.00;99.90;;;;;;5053590;28;20037;-80
2021/12/07 14:13:02;;;;;;;23.17;4.90;;;4.90;99.90;;;;;;5057327;28;20070;-81
2021/12/07 14:15:33;;;;;;;17.52;4.63;;;4.90;99.90;;;;;;5054387;28;20083;-81
2021/12/07 14:18:05;;;;;;;18.05;4.68;;;4.80;99.90;;;;;;5044084;28;20059;-81
2021/12/07 14:20:52;;;;;;;15.02;3.85;;;4.80;99.90;;;;;;5049294;28;20048;-80
2021/12/07 14:23:28;;;;;;;13.55;4.47;;;4.80;99.90;;;;;;5056711;28;20084;-81
2021/12/07 14:26:01;;;;;;;14.05;4.55;;;4.80;99.90;;;;;;5075613;28;20075;-80
2021/12/07 14:28:35;;;;;;;17.35;4.32;;;4.70;99.90;;;;;;5072204;28;20056;-80
2021/12/07 14:31:14;;;;;;;17.13;4.32;;;4.70;99.90;;;;;;5073660;28;20037;-81
2021/12/07 14:33:54;;;;;;;17.13;5.15;;;4.70;99.90;;;;;;5071412;28;20135;-81
2021/12/07 14:36:24;;;;;;;16.38;5.13;;;4.60;99.90;;;;;;5056635;28;20048;-81
2021/12/07 14:38:53;;;;;;;16.33;5.05;;;4.60;99.90;;;;;;5056224;28;20458;-82